Time;durP1;ratioP1;P1;durP2;ratioP2;P2;SDS_P1;SDS_P2;PMS_P1;PMS_P2;Temp;Humidity;BMP_temperature;BMP_pressure;BME280_temperature;BME280_humidity;BME280_pressure;Samples;Min_cycle;Max_cycle;Signal;HPM_P1;HPM_P2
2022/08/20 00:02:19;;;;;;;1.80;1.57;;;;;;;;;;4952189;28;20178;-43
2022/08/20 00:04:46;;;;;;;3.10;1.60;;;;;;;;;;4955623;28;20202;-44
2022/08/20 00:07:15;;;;;;;1.80;1.43;;;;;;;;;;4954123;28;20837;-44
2022/08/20 00:09:42;;;;;;;2.67;1.50;;;;;;;;;;4953053;28;20170;-44
2022/08/20 00:12:09;;;;;;;6.43;1.90;;;;;;;;;;4957832;28;20664;-44
2022/08/20 00:14:36;;;;;;;2.40;1.80;;;;;;;;;;4957932;28;20734;-44
2022/08/20 00:17:02;;;;;;;3.17;1.63;;;;;;;;;;4955910;28;20674;-44
2022/08/20 00:19:29;;;;;;;2.30;1.50;;;;;;;;;;4957546;28;20673;-44
2022/08/20 00:21:55;;;;;;;6.57;1.57;;;;;;;;;;4958541;28;20256;-44
2022/08/20 00:24:22;;;;;;;1.53;1.40;;;;;;;;;;4955068;28;20206;-44
2022/08/20 00:26:48;;;;;;;3.17;1.70;;;;;;;;;;4956314;28;20375;-44
2022/08/20 00:29:14;;;;;;;2.13;1.50;;;;;;;;;;4958093;28;20252;-44
2022/08/20 00:31:40;;;;;;;1.80;1.53;;;;;;;;;;4958576;28;20174;-44
2022/08/20 00:34:06;;;;;;;4.00;1.70;;;;;;;;;;4958836;28;20177;-44
2022/08/20 00:36:33;;;;;;;4.30;1.80;;;;;;;;;;4958699;28;20712;-44
2022/08/20 00:38:59;;;;;;;3.73;1.77;;;;;;;;;;4987989;28;20693;-44
2022/08/20 00:41:26;;;;;;;2.30;1.60;;;;;;;;;;4955766;28;20635;-44
2022/08/20 00:44:12;;;;;;;4.00;1.97;;;;;;;;;;4956861;28;20194;-44
2022/08/20 00:46:39;;;;;;;2.53;1.83;;;;;;;;;;4957642;28;20393;-43
2022/08/20 00:49:07;;;;;;;3.83;1.93;;;;;;;;;;4955345;28;20742;-44
2022/08/20 00:51:37;;;;;;;2.17;1.63;;;;;;;;;;4953912;28;20173;-44
2022/08/20 00:54:19;;;;;;;4.10;1.90;;;;;;;;;;4957627;28;20174;-44
2022/08/20 00:56:46;;;;;;;2.70;1.90;;;;;;;;;;4958848;28;20490;-44
2022/08/20 00:59:16;;;;;;;2.90;2.00;;;;;;;;;;4954978;28;20492;-44
2022/08/20 01:01:43;;;;;;;4.77;1.83;;;;;;;;;;4955204;28;20604;-44
2022/08/20 01:04:10;;;;;;;2.67;1.70;;;;;;;;;;4957106;28;21011;-44
2022/08/20 01:06:37;;;;;;;4.77;1.87;;;;;;;;;;4957718;28;20178;-44
2022/08/20 01:09:03;;;;;;;2.43;1.70;;;;;;;;;;4955160;28;20602;-44
2022/08/20 01:11:33;;;;;;;3.23;1.80;;;;;;;;;;4954789;28;20181;-44
2022/08/20 01:14:01;;;;;;;5.73;1.97;;;;;;;;;;4956173;28;20289;-44
2022/08/20 01:16:30;;;;;;;3.50;1.77;;;;;;;;;;4950858;28;20178;-44
2022/08/20 01:18:57;;;;;;;2.20;1.57;;;;;;;;;;4954219;28;20675;-44
2022/08/20 01:21:27;;;;;;;2.43;1.77;;;;;;;;;;4956603;28;20862;-44
2022/08/20 01:24:08;;;;;;;2.23;1.50;;;;;;;;;;4956888;28;20534;-44
2022/08/20 01:26:40;;;;;;;1.90;1.50;;;;;;;;;;4954362;28;20210;-44
2022/08/20 01:29:20;;;;;;;4.83;1.90;;;;;;;;;;4953388;28;20256;-44
2022/08/20 01:31:46;;;;;;;3.37;1.97;;;;;;;;;;4955548;28;20729;-44
2022/08/20 01:34:14;;;;;;;3.73;1.80;;;;;;;;;;4958415;28;20322;-44
2022/08/20 01:36:42;;;;;;;3.67;1.90;;;;;;;;;;4956842;28;20734;-44
2022/08/20 01:39:09;;;;;;;1.63;1.50;;;;;;;;;;4954847;28;20190;-43
2022/08/20 01:41:51;;;;;;;4.90;1.57;;;;;;;;;;4954940;28;20682;-44
2022/08/20 01:44:18;;;;;;;4.97;1.80;;;;;;;;;;4957229;28;20198;-44
2022/08/20 01:46:46;;;;;;;4.43;1.70;;;;;;;;;;4953790;28;20291;-44
2022/08/20 01:49:15;;;;;;;3.20;2.03;;;;;;;;;;4954423;28;20190;-44
2022/08/20 01:51:41;;;;;;;3.30;2.13;;;;;;;;;;4957784;28;20529;-44
2022/08/20 01:54:07;;;;;;;4.30;2.07;;;;;;;;;;4957713;28;20178;-44
2022/08/20 01:56:34;;;;;;;4.00;1.87;;;;;;;;;;4952398;28;20962;-44
2022/08/20 01:59:06;;;;;;;3.37;1.60;;;;;;;;;;4954214;28;20252;-44
2022/08/20 02:01:39;;;;;;;4.30;1.70;;;;;;;;;;4958924;28;20189;-44
2022/08/20 02:04:06;;;;;;;4.67;2.17;;;;;;;;;;4956027;28;20202;-44
2022/08/20 02:06:34;;;;;;;6.23;2.00;;;;;;;;;;4954915;28;20252;-44
2022/08/20 02:09:01;;;;;;;3.13;1.60;;;;;;;;;;4956021;28;20379;-44
2022/08/20 02:11:29;;;;;;;3.93;2.27;;;;;;;;;;4955672;28;20178;-44
2022/08/20 02:13:56;;;;;;;4.73;2.17;;;;;;;;;;4953219;28;20403;-44
2022/08/20 02:16:27;;;;;;;5.23;2.37;;;;;;;;;;4953044;28;20229;-44
2022/08/20 02:18:57;;;;;;;5.80;2.93;;;;;;;;;;4956276;28;20689;-44
2022/08/20 02:21:24;;;;;;;4.73;2.87;;;;;;;;;;4958435;28;20357;-44
2022/08/20 02:23:51;;;;;;;6.90;2.50;;;;;;;;;;4953398;28;20288;-44
2022/08/20 02:26:18;;;;;;;3.50;2.80;;;;;;;;;;4956427;28;20647;-44
2022/08/20 02:28:49;;;;;;;4.80;3.23;;;;;;;;;;4954065;28;20206;-44
2022/08/20 02:31:19;;;;;;;5.13;3.80;;;;;;;;;;4953223;28;21160;-44
2022/08/20 02:33:46;;;;;;;6.67;3.90;;;;;;;;;;4957226;28;20186;-44
2022/08/20 02:36:14;;;;;;;4.27;3.43;;;;;;;;;;4956370;28;20189;-44
2022/08/20 02:38:40;;;;;;;4.07;2.77;;;;;;;;;;4953639;28;20189;-44
2022/08/20 02:41:07;;;;;;;3.33;2.90;;;;;;;;;;4956278;28;20259;-44
2022/08/20 02:43:33;;;;;;;5.07;3.30;;;;;;;;;;4955002;28;20395;-44
2022/08/20 02:46:01;;;;;;;3.53;3.23;;;;;;;;;;4954376;28;20619;-44
2022/08/20 02:48:27;;;;;;;5.53;3.40;;;;;;;;;;4956126;28;20608;-44
2022/08/20 02:51:00;;;;;;;4.70;3.13;;;;;;;;;;4954193;28;20177;-44
2022/08/20 02:53:26;;;;;;;8.10;3.10;;;;;;;;;;4954165;28;20192;-44
2022/08/20 02:55:52;;;;;;;4.03;2.83;;;;;;;;;;4954987;28;20178;-44
2022/08/20 02:58:20;;;;;;;4.17;2.57;;;;;;;;;;4955135;28;20520;-44
2022/08/20 03:00:46;;;;;;;5.00;2.97;;;;;;;;;;4953699;28;20564;-44
2022/08/20 03:03:14;;;;;;;3.83;2.70;;;;;;;;;;4951904;28;20603;-44
2022/08/20 03:05:41;;;;;;;3.83;2.50;;;;;;;;;;4955058;28;20209;-44
2022/08/20 03:08:08;;;;;;;4.27;2.50;;;;;;;;;;4953925;28;20423;-43
2022/08/20 03:10:35;;;;;;;3.87;2.67;;;;;;;;;;4951909;28;20186;-47
2022/08/20 03:13:02;;;;;;;3.90;2.97;;;;;;;;;;4957390;28;20186;-47
2022/08/20 03:15:29;;;;;;;3.30;2.60;;;;;;;;;;4954025;28;20208;-47
2022/08/20 03:17:55;;;;;;;5.47;2.63;;;;;;;;;;4951217;28;20178;-47
2022/08/20 03:20:22;;;;;;;5.03;2.77;;;;;;;;;;4951016;28;20229;-47
2022/08/20 03:22:48;;;;;;;4.27;2.87;;;;;;;;;;4955757;28;20923;-47
2022/08/20 03:25:15;;;;;;;3.10;2.80;;;;;;;;;;4968743;28;20205;-47
2022/08/20 03:27:41;;;;;;;3.90;2.80;;;;;;;;;;4950545;28;20174;-47
2022/08/20 03:30:09;;;;;;;4.73;2.80;;;;;;;;;;4951061;28;20460;-47
2022/08/20 03:32:35;;;;;;;4.83;2.90;;;;;;;;;;4952992;28;20284;-47
2022/08/20 03:35:02;;;;;;;4.43;3.10;;;;;;;;;;4956459;28;20330;-47
2022/08/20 03:37:32;;;;;;;4.23;3.10;;;;;;;;;;4954745;28;20828;-47
2022/08/20 03:39:58;;;;;;;3.17;2.67;;;;;;;;;;4951791;28;20540;-47
2022/08/20 03:42:24;;;;;;;4.93;2.93;;;;;;;;;;4952344;28;20169;-47
2022/08/20 03:44:52;;;;;;;5.87;3.20;;;;;;;;;;4954828;28;20202;-47
2022/08/20 03:47:18;;;;;;;5.37;2.90;;;;;;;;;;4952015;28;20686;-47
2022/08/20 03:49:45;;;;;;;4.63;2.80;;;;;;;;;;4949596;28;20958;-47
2022/08/20 03:52:11;;;;;;;5.10;2.77;;;;;;;;;;4954123;28;20877;-47
2022/08/20 03:54:37;;;;;;;3.93;2.30;;;;;;;;;;4957108;28;20178;-44
2022/08/20 03:57:03;;;;;;;3.23;2.77;;;;;;;;;;4954495;28;20258;-44
2022/08/20 03:59:33;;;;;;;4.03;2.60;;;;;;;;;;4950563;28;20389;-44
2022/08/20 04:01:59;;;;;;;3.23;2.40;;;;;;;;;;4954045;28;20178;-44
2022/08/20 04:04:26;;;;;;;3.23;2.57;;;;;;;;;;4953364;28;20912;-44
2022/08/20 04:06:52;;;;;;;2.67;2.33;;;;;;;;;;4951357;28;20621;-44
2022/08/20 04:09:18;;;;;;;5.63;2.93;;;;;;;;;;4953627;28;20913;-44
2022/08/20 04:11:44;;;;;;;4.03;2.83;;;;;;;;;;4957260;28;20185;-44
2022/08/20 04:14:11;;;;;;;3.70;2.43;;;;;;;;;;4952260;28;20185;-44
2022/08/20 04:16:39;;;;;;;4.53;2.90;;;;;;;;;;4953592;28;20178;-44
2022/08/20 04:19:06;;;;;;;3.27;2.60;;;;;;;;;;4955004;28;20220;-44
2022/08/20 04:21:32;;;;;;;3.23;2.30;;;;;;;;;;4955995;28;20635;-44
2022/08/20 04:23:59;;;;;;;3.50;2.70;;;;;;;;;;4952032;28;20525;-44
2022/08/20 04:26:25;;;;;;;4.07;2.77;;;;;;;;;;4951584;28;20170;-44
2022/08/20 04:28:51;;;;;;;5.63;2.63;;;;;;;;;;4954130;28;20173;-44
2022/08/20 04:31:19;;;;;;;6.87;2.50;;;;;;;;;;4953579;28;20647;-44
2022/08/20 04:33:45;;;;;;;5.10;2.23;;;;;;;;;;4953094;28;20281;-44
2022/08/20 04:36:12;;;;;;;4.00;2.60;;;;;;;;;;4955422;28;20493;-44
2022/08/20 04:38:39;;;;;;;3.10;2.30;;;;;;;;;;4955198;28;20186;-44
2022/08/20 04:41:06;;;;;;;4.37;2.50;;;;;;;;;;4950653;28;20210;-44
2022/08/20 04:43:36;;;;;;;2.90;2.20;;;;;;;;;;4953288;28;20946;-44
2022/08/20 04:46:04;;;;;;;4.17;2.27;;;;;;;;;;4954556;28;20377;-44
2022/08/20 04:48:30;;;;;;;3.63;2.70;;;;;;;;;;4950329;28;20241;-44
2022/08/20 04:50:58;;;;;;;4.37;2.50;;;;;;;;;;4953268;28;20202;-44
2022/08/20 04:53:26;;;;;;;4.53;2.10;;;;;;;;;;4954454;28;20567;-44
2022/08/20 04:55:53;;;;;;;2.77;2.43;;;;;;;;;;4956307;28;21034;-44
2022/08/20 04:58:21;;;;;;;7.83;2.63;;;;;;;;;;4954940;28;20956;-44
2022/08/20 05:00:48;;;;;;;5.63;2.80;;;;;;;;;;4957598;28;20190;-44
2022/08/20 05:03:15;;;;;;;3.40;2.30;;;;;;;;;;4959294;28;20669;-44
2022/08/20 05:05:42;;;;;;;2.47;2.27;;;;;;;;;;4956973;28;20622;-44
2022/08/20 05:08:08;;;;;;;3.13;2.43;;;;;;;;;;4955495;28;20442;-44
2022/08/20 05:10:37;;;;;;;3.73;2.50;;;;;;;;;;4958715;28;20185;-44
2022/08/20 05:13:03;;;;;;;3.77;2.83;;;;;;;;;;4956342;28;20227;-44
2022/08/20 05:15:29;;;;;;;3.97;2.60;;;;;;;;;;4956597;28;20179;-47
2022/08/20 05:17:59;;;;;;;4.30;2.40;;;;;;;;;;4958198;28;20192;-47
2022/08/20 05:20:28;;;;;;;5.30;2.50;;;;;;;;;;4955542;28;20321;-47
2022/08/20 05:22:54;;;;;;;3.00;2.40;;;;;;;;;;4954047;28;20988;-47
2022/08/20 05:25:21;;;;;;;3.27;2.40;;;;;;;;;;4953151;28;20260;-47
2022/08/20 05:27:47;;;;;;;2.67;2.27;;;;;;;;;;4957429;28;20904;-47
2022/08/20 05:30:14;;;;;;;3.10;2.20;;;;;;;;;;4955592;28;20579;-47
2022/08/20 05:32:40;;;;;;;3.00;2.50;;;;;;;;;;4957462;28;20344;-44
2022/08/20 05:35:08;;;;;;;2.63;2.43;;;;;;;;;;4956619;28;20257;-44
2022/08/20 05:37:35;;;;;;;6.20;2.50;;;;;;;;;;4956675;28;20719;-44
2022/08/20 05:40:01;;;;;;;3.10;1.90;;;;;;;;;;4967809;28;20730;-44
2022/08/20 05:42:28;;;;;;;3.97;2.20;;;;;;;;;;4956661;28;20665;-44
2022/08/20 05:44:54;;;;;;;2.50;2.10;;;;;;;;;;4959279;28;20198;-44
2022/08/20 05:47:27;;;;;;;3.10;2.10;;;;;;;;;;4955240;28;20171;-45
2022/08/20 05:49:54;;;;;;;3.33;2.00;;;;;;;;;;4957768;28;20177;-45
2022/08/20 05:52:20;;;;;;;3.80;2.20;;;;;;;;;;4958408;28;20182;-44
2022/08/20 05:54:46;;;;;;;3.93;2.27;;;;;;;;;;4957379;28;20936;-44
2022/08/20 05:57:12;;;;;;;4.17;2.20;;;;;;;;;;4956679;28;21076;-45
2022/08/20 05:59:39;;;;;;;2.97;2.07;;;;;;;;;;4958189;28;20174;-44
2022/08/20 06:04:23;;;;;;;3.13;1.80;;;;;;;;;;4958098;28;20737;-44
2022/08/20 06:04:51;;;;;;;3.37;2.00;;;;;;;;;;4957222;28;21217;-44
2022/08/20 06:07:17;;;;;;;2.93;2.00;;;;;;;;;;4955210;28;20388;-44
2022/08/20 06:09:43;;;;;;;3.60;2.03;;;;;;;;;;4952108;28;20184;-44
2022/08/20 06:12:09;;;;;;;4.60;2.37;;;;;;;;;;4955104;28;20869;-44
2022/08/20 06:14:36;;;;;;;4.97;2.70;;;;;;;;;;4959390;28;20405;-44
2022/08/20 06:17:03;;;;;;;6.50;2.17;;;;;;;;;;4952980;28;20185;-44
2022/08/20 06:19:29;;;;;;;2.93;2.33;;;;;;;;;;4955583;28;20284;-44
2022/08/20 06:21:55;;;;;;;2.97;2.37;;;;;;;;;;4956596;28;20834;-45
2022/08/20 06:24:21;;;;;;;4.73;2.50;;;;;;;;;;4953284;28;20523;-45
2022/08/20 06:26:48;;;;;;;3.93;2.17;;;;;;;;;;4956457;28;20170;-44
2022/08/20 06:29:15;;;;;;;3.77;2.63;;;;;;;;;;4957334;28;20170;-45
2022/08/20 06:31:41;;;;;;;5.30;2.30;;;;;;;;;;4950207;28;20178;-44
2022/08/20 06:34:07;;;;;;;7.50;2.47;;;;;;;;;;4954240;28;20457;-45
2022/08/20 06:36:33;;;;;;;8.40;2.60;;;;;;;;;;4958100;28;20341;-44
2022/08/20 06:38:59;;;;;;;8.87;2.70;;;;;;;;;;4953243;28;20194;-44
2022/08/20 06:41:25;;;;;;;6.57;2.87;;;;;;;;;;4953140;28;20614;-44
2022/08/20 06:43:52;;;;;;;4.43;2.20;;;;;;;;;;4953297;28;20178;-44
2022/08/20 06:46:19;;;;;;;3.53;2.07;;;;;;;;;;4956397;28;21014;-44
2022/08/20 06:48:45;;;;;;;3.37;2.40;;;;;;;;;;4951861;28;20407;-45
2022/08/20 06:51:11;;;;;;;3.37;2.07;;;;;;;;;;4953374;28;20244;-46
2022/08/20 06:53:37;;;;;;;4.40;2.13;;;;;;;;;;4953408;28;20525;-46
2022/08/20 06:56:04;;;;;;;2.80;1.80;;;;;;;;;;4955237;28;20182;-47
2022/08/20 06:58:31;;;;;;;7.43;2.00;;;;;;;;;;4952609;28;20735;-47
2022/08/20 07:00:58;;;;;;;4.40;1.83;;;;;;;;;;4954394;28;20174;-47
2022/08/20 07:03:25;;;;;;;3.33;1.60;;;;;;;;;;4955984;28;20229;-47
2022/08/20 07:05:51;;;;;;;2.73;1.80;;;;;;;;;;4954452;28;20280;-47
2022/08/20 07:08:21;;;;;;;3.23;1.63;;;;;;;;;;4951217;28;20173;-45
2022/08/20 07:10:47;;;;;;;5.40;1.60;;;;;;;;;;4954675;28;20257;-44
2022/08/20 07:13:15;;;;;;;2.07;1.50;;;;;;;;;;4958174;28;20738;-44
2022/08/20 07:15:41;;;;;;;1.90;1.57;;;;;;;;;;4955886;28;20174;-44
2022/08/20 07:18:07;;;;;;;3.70;1.60;;;;;;;;;;4952459;28;20263;-44
2022/08/20 07:20:35;;;;;;;3.63;1.70;;;;;;;;;;4954342;28;20853;-46
2022/08/20 07:23:02;;;;;;;2.23;1.60;;;;;;;;;;4955314;28;20396;-44
2022/08/20 07:25:28;;;;;;;2.67;1.77;;;;;;;;;;4951247;28;20201;-44
2022/08/20 07:27:59;;;;;;;3.87;1.60;;;;;;;;;;4951333;28;20174;-44
2022/08/20 07:33:13;;;;;;;2.33;1.83;;;;;;;;;;4954609;28;20330;-45
2022/08/20 07:35:39;;;;;;;2.33;1.50;;;;;;;;;;4953081;28;20182;-45
2022/08/20 07:38:06;;;;;;;2.97;1.50;;;;;;;;;;4954881;28;20198;-45
2022/08/20 07:40:34;;;;;;;1.90;1.70;;;;;;;;;;4954505;28;20760;-45
2022/08/20 07:43:01;;;;;;;4.20;1.90;;;;;;;;;;4950845;28;20376;-45
2022/08/20 07:45:28;;;;;;;1.53;1.30;;;;;;;;;;4951346;28;20205;-45
2022/08/20 07:47:54;;;;;;;3.73;1.70;;;;;;;;;;4955265;28;20921;-45
2022/08/20 07:50:25;;;;;;;2.53;1.80;;;;;;;;;;4956068;28;20174;-45
2022/08/20 07:52:51;;;;;;;3.23;1.53;;;;;;;;;;4949772;28;20178;-45
2022/08/20 07:55:18;;;;;;;1.97;1.50;;;;;;;;;;4957297;28;20170;-45
2022/08/20 07:57:45;;;;;;;2.73;1.70;;;;;;;;;;4951523;28;20178;-45
2022/08/20 08:00:12;;;;;;;2.67;1.43;;;;;;;;;;4954364;28;20225;-44
2022/08/20 08:02:38;;;;;;;2.30;1.70;;;;;;;;;;4955762;28;20209;-45
2022/08/20 08:05:05;;;;;;;2.83;1.80;;;;;;;;;;4955598;28;20568;-46
2022/08/20 08:07:32;;;;;;;5.33;1.80;;;;;;;;;;4950408;28;20600;-45
2022/08/20 08:10:00;;;;;;;4.37;1.93;;;;;;;;;;4956662;28;20625;-45
2022/08/20 08:12:29;;;;;;;4.87;2.07;;;;;;;;;;4953231;28;20178;-45
2022/08/20 08:14:55;;;;;;;2.33;1.50;;;;;;;;;;4966037;28;20178;-45
2022/08/20 08:17:21;;;;;;;3.67;1.93;;;;;;;;;;4953385;28;21238;-45
2022/08/20 08:19:49;;;;;;;1.93;1.80;;;;;;;;;;4955579;28;20170;-45
2022/08/20 08:22:17;;;;;;;2.57;1.77;;;;;;;;;;4953235;28;20250;-45
2022/08/20 08:24:45;;;;;;;2.07;1.80;;;;;;;;;;4952801;28;20225;-45
2022/08/20 08:27:12;;;;;;;5.33;1.70;;;;;;;;;;4955440;28;20400;-45
2022/08/20 08:29:38;;;;;;;2.70;1.60;;;;;;;;;;4958077;28;20185;-45
2022/08/20 08:32:05;;;;;;;1.93;1.40;;;;;;;;;;4955065;28;20762;-45
2022/08/20 08:34:32;;;;;;;3.07;1.60;;;;;;;;;;4957066;28;20635;-45
2022/08/20 08:36:58;;;;;;;1.63;1.50;;;;;;;;;;4956117;28;20197;-45
2022/08/20 08:39:25;;;;;;;2.07;1.50;;;;;;;;;;4955865;28;20198;-46
2022/08/20 08:41:53;;;;;;;3.17;1.60;;;;;;;;;;4955642;28;20189;-45
2022/08/20 08:44:25;;;;;;;2.07;1.60;;;;;;;;;;4959675;28;20491;-45
2022/08/20 08:46:56;;;;;;;4.00;1.53;;;;;;;;;;4953764;28;20158;-46
2022/08/20 08:49:25;;;;;;;2.50;1.63;;;;;;;;;;4953915;28;20170;-44
2022/08/20 08:51:59;;;;;;;7.90;1.60;;;;;;;;;;4956170;28;20572;-45
2022/08/20 08:54:27;;;;;;;3.00;1.43;;;;;;;;;;4970209;28;20417;-45
2022/08/20 08:56:53;;;;;;;2.37;1.30;;;;;;;;;;4955329;28;20183;-45
2022/08/20 08:59:21;;;;;;;1.93;1.63;;;;;;;;;;4953738;28;20674;-46
2022/08/20 09:01:49;;;;;;;2.93;1.17;;;;;;;;;;4960020;28;21011;-46
2022/08/20 09:04:16;;;;;;;2.40;1.70;;;;;;;;;;4955410;28;20186;-45
2022/08/20 09:06:43;;;;;;;3.63;1.30;;;;;;;;;;4957073;28;20185;-45
2022/08/20 09:09:24;;;;;;;1.63;1.40;;;;;;;;;;4957410;28;20512;-45
2022/08/20 09:11:53;;;;;;;2.03;1.47;;;;;;;;;;4953450;28;20608;-46
2022/08/20 09:14:20;;;;;;;2.47;1.63;;;;;;;;;;4954363;28;20416;-46
2022/08/20 09:16:46;;;;;;;1.83;1.63;;;;;;;;;;4952161;28;20486;-46
2022/08/20 09:19:12;;;;;;;1.90;1.60;;;;;;;;;;4953288;28;20229;-46
2022/08/20 09:21:38;;;;;;;3.47;1.60;;;;;;;;;;4951198;28;20183;-46
2022/08/20 09:24:04;;;;;;;1.97;1.70;;;;;;;;;;4950080;28;20820;-45
2022/08/20 09:26:31;;;;;;;2.83;1.67;;;;;;;;;;4950081;28;20179;-46
2022/08/20 09:28:57;;;;;;;1.80;1.67;;;;;;;;;;4949881;28;20291;-46
2022/08/20 09:31:23;;;;;;;3.70;1.70;;;;;;;;;;4955194;28;20672;-45
2022/08/20 09:33:50;;;;;;;2.80;1.73;;;;;;;;;;4955399;28;20597;-45
2022/08/20 09:36:16;;;;;;;1.97;1.60;;;;;;;;;;4950740;28;20617;-45
2022/08/20 09:38:42;;;;;;;3.30;1.50;;;;;;;;;;4955100;28;20468;-45
2022/08/20 09:41:08;;;;;;;2.57;1.70;;;;;;;;;;4955278;28;20571;-46
2022/08/20 09:43:34;;;;;;;3.07;1.60;;;;;;;;;;4953261;28;20446;-45
2022/08/20 09:46:00;;;;;;;2.20;1.60;;;;;;;;;;4954308;28;20194;-45
2022/08/20 09:48:27;;;;;;;1.70;1.60;;;;;;;;;;4954430;28;20166;-45
2022/08/20 09:50:53;;;;;;;3.87;1.93;;;;;;;;;;4957867;28;20170;-45
2022/08/20 09:53:19;;;;;;;2.20;1.97;;;;;;;;;;4955771;28;20289;-46
2022/08/20 09:55:48;;;;;;;2.47;1.53;;;;;;;;;;4959751;28;20276;-45
2022/08/20 09:58:14;;;;;;;1.97;1.70;;;;;;;;;;4954964;28;20181;-45
2022/08/20 10:00:40;;;;;;;3.70;1.90;;;;;;;;;;4954019;28;20208;-45
2022/08/20 10:03:06;;;;;;;3.87;1.70;;;;;;;;;;4959515;28;20964;-44
2022/08/20 10:05:32;;;;;;;2.43;1.57;;;;;;;;;;4955964;28;20213;-45
2022/08/20 10:07:59;;;;;;;2.40;1.57;;;;;;;;;;4957190;28;20625;-44
2022/08/20 10:10:25;;;;;;;2.93;1.63;;;;;;;;;;4960636;28;21259;-44
2022/08/20 10:12:51;;;;;;;2.27;1.60;;;;;;;;;;4957162;28;20419;-45
2022/08/20 10:15:17;;;;;;;1.87;1.60;;;;;;;;;;4953680;28;20452;-44
2022/08/20 10:17:43;;;;;;;2.37;1.20;;;;;;;;;;4955927;28;20186;-45
2022/08/20 10:20:10;;;;;;;2.57;1.40;;;;;;;;;;4956275;28;20218;-45
2022/08/20 10:22:37;;;;;;;2.07;1.60;;;;;;;;;;4950438;28;20175;-45
2022/08/20 10:25:04;;;;;;;1.53;1.43;;;;;;;;;;4954469;28;20532;-45
2022/08/20 10:27:30;;;;;;;2.50;1.60;;;;;;;;;;4958624;28;20410;-45
2022/08/20 10:29:56;;;;;;;1.97;1.40;;;;;;;;;;4955064;28;21198;-45
2022/08/20 10:32:22;;;;;;;1.37;1.20;;;;;;;;;;4953620;28;20181;-45
2022/08/20 10:34:48;;;;;;;1.93;1.20;;;;;;;;;;4955447;28;20182;-45
2022/08/20 10:37:18;;;;;;;1.37;1.20;;;;;;;;;;4951687;28;20264;-45
2022/08/20 10:39:45;;;;;;;2.40;1.13;;;;;;;;;;4954494;28;20685;-45
2022/08/20 10:42:11;;;;;;;2.47;1.30;;;;;;;;;;4952056;28;20820;-45
2022/08/20 10:44:38;;;;;;;1.67;1.20;;;;;;;;;;4952087;28;20205;-45
2022/08/20 10:47:23;;;;;;;1.83;1.30;;;;;;;;;;4954161;28;20181;-45
2022/08/20 10:49:50;;;;;;;1.77;1.20;;;;;;;;;;4954915;28;20591;-44
2022/08/20 10:52:16;;;;;;;1.30;1.20;;;;;;;;;;4949850;28;20490;-45
2022/08/20 10:54:42;;;;;;;1.17;1.03;;;;;;;;;;4951196;28;20181;-45
2022/08/20 10:57:12;;;;;;;2.20;1.20;;;;;;;;;;4954435;28;20746;-45
2022/08/20 10:59:40;;;;;;;1.80;0.80;;;;;;;;;;4952690;28;20178;-44
2022/08/20 11:02:07;;;;;;;1.03;0.83;;;;;;;;;;4968772;28;21093;-45
2022/08/20 11:04:33;;;;;;;1.07;1.00;;;;;;;;;;4951113;28;20813;-44
2022/08/20 11:07:09;;;;;;;2.60;1.20;;;;;;;;;;4952907;28;20182;-45
2022/08/20 11:09:35;;;;;;;1.30;1.10;;;;;;;;;;4956798;28;20181;-45
2022/08/20 11:12:01;;;;;;;2.43;1.17;;;;;;;;;;4952823;28;20213;-45
2022/08/20 11:14:27;;;;;;;2.00;0.90;;;;;;;;;;4951599;28;20598;-44
2022/08/20 11:16:53;;;;;;;1.73;0.90;;;;;;;;;;4954104;28;20186;-44
2022/08/20 11:19:19;;;;;;;1.43;1.10;;;;;;;;;;4956996;28;20182;-44
2022/08/20 11:21:45;;;;;;;1.50;1.17;;;;;;;;;;4953148;28;20633;-45
2022/08/20 11:24:12;;;;;;;0.97;0.93;;;;;;;;;;4953892;28;20213;-45
2022/08/20 11:26:38;;;;;;;1.07;1.07;;;;;;;;;;4954201;28;20853;-44
2022/08/20 11:29:04;;;;;;;2.40;1.00;;;;;;;;;;4952994;28;20392;-44
2022/08/20 11:31:30;;;;;;;3.87;1.20;;;;;;;;;;4953228;28;20284;-45
2022/08/20 11:33:56;;;;;;;2.67;1.30;;;;;;;;;;4954691;28;20436;-44
2022/08/20 11:36:25;;;;;;;4.07;1.03;;;;;;;;;;4954224;28;20756;-44
2022/08/20 11:38:51;;;;;;;1.53;1.20;;;;;;;;;;4953161;28;20197;-44
2022/08/20 11:41:17;;;;;;;1.30;1.10;;;;;;;;;;4953427;28;20186;-44
2022/08/20 11:43:43;;;;;;;2.17;1.10;;;;;;;;;;4954571;28;20240;-44
2022/08/20 11:46:10;;;;;;;1.00;0.90;;;;;;;;;;4954695;28;20203;-44
2022/08/20 11:48:36;;;;;;;1.17;0.90;;;;;;;;;;4951383;28;20175;-45
2022/08/20 11:51:02;;;;;;;1.33;1.00;;;;;;;;;;4953298;28;20582;-44
2022/08/20 11:53:29;;;;;;;1.83;1.00;;;;;;;;;;4956072;28;20623;-45
2022/08/20 11:55:55;;;;;;;1.67;1.00;;;;;;;;;;4949161;28;20356;-45
2022/08/20 11:58:22;;;;;;;1.20;1.00;;;;;;;;;;4948072;28;20189;-44
2022/08/20 12:00:48;;;;;;;1.50;1.07;;;;;;;;;;4952012;28;20182;-44
2022/08/20 12:03:14;;;;;;;1.10;1.00;;;;;;;;;;4951313;28;20178;-44
2022/08/20 12:05:41;;;;;;;1.67;1.03;;;;;;;;;;4946136;28;20209;-45
2022/08/20 12:08:08;;;;;;;1.47;1.10;;;;;;;;;;4954958;28;20210;-44
2022/08/20 12:10:34;;;;;;;0.97;0.93;;;;;;;;;;4964822;28;20711;-44
2022/08/20 12:13:00;;;;;;;1.70;0.80;;;;;;;;;;4952193;28;20505;-44
2022/08/20 12:15:27;;;;;;;1.67;1.00;;;;;;;;;;4950763;28;20185;-43
2022/08/20 12:17:53;;;;;;;0.87;0.80;;;;;;;;;;4952697;28;20506;-45
2022/08/20 12:20:19;;;;;;;0.80;0.80;;;;;;;;;;4951418;28;20540;-44
2022/08/20 12:22:45;;;;;;;1.47;1.07;;;;;;;;;;4951745;28;20516;-45
2022/08/20 12:25:12;;;;;;;1.53;0.90;;;;;;;;;;4954417;28;20207;-45
2022/08/20 12:27:39;;;;;;;1.37;0.90;;;;;;;;;;4950920;28;20182;-45
2022/08/20 12:30:10;;;;;;;2.93;1.00;;;;;;;;;;4951491;28;20178;-45
2022/08/20 12:32:36;;;;;;;2.20;1.00;;;;;;;;;;4951239;28;20179;-44
2022/08/20 12:35:03;;;;;;;1.67;1.00;;;;;;;;;;4952900;28;20201;-45
2022/08/20 12:37:30;;;;;;;1.43;0.80;;;;;;;;;;4953662;28;20201;-45
2022/08/20 12:39:56;;;;;;;1.23;0.80;;;;;;;;;;4951525;28;20608;-45
2022/08/20 12:42:23;;;;;;;1.23;0.80;;;;;;;;;;4953303;28;20540;-45
2022/08/20 12:44:49;;;;;;;1.00;0.60;;;;;;;;;;4951602;28;20212;-45
2022/08/20 12:47:15;;;;;;;2.00;0.77;;;;;;;;;;4948235;28;20726;-46
2022/08/20 12:49:44;;;;;;;1.27;0.80;;;;;;;;;;4953846;28;20179;-45
2022/08/20 12:52:11;;;;;;;0.60;0.60;;;;;;;;;;4949415;28;20198;-45
2022/08/20 12:54:37;;;;;;;0.80;0.80;;;;;;;;;;4950570;28;20671;-46
2022/08/20 12:57:04;;;;;;;1.10;0.73;;;;;;;;;;4951254;28;20244;-46
2022/08/20 12:59:30;;;;;;;0.80;0.80;;;;;;;;;;4949541;28;20599;-45
2022/08/20 13:01:57;;;;;;;2.30;0.90;;;;;;;;;;4951538;28;20197;-46
2022/08/20 13:04:23;;;;;;;1.07;0.83;;;;;;;;;;4947883;28;20305;-46
2022/08/20 13:06:50;;;;;;;0.80;0.80;;;;;;;;;;4948267;28;20944;-45
2022/08/20 13:09:16;;;;;;;0.97;0.77;;;;;;;;;;4948471;28;20250;-46
2022/08/20 13:11:43;;;;;;;1.10;0.73;;;;;;;;;;4948955;28;20719;-45
2022/08/20 13:14:09;;;;;;;2.10;0.60;;;;;;;;;;4948385;28;20183;-45
2022/08/20 13:16:35;;;;;;;1.37;0.73;;;;;;;;;;4951499;28;20182;-45
2022/08/20 13:19:01;;;;;;;2.07;0.80;;;;;;;;;;4953194;28;20189;-44
2022/08/20 13:21:27;;;;;;;1.93;0.80;;;;;;;;;;4950852;28;20171;-46
2022/08/20 13:23:54;;;;;;;0.70;0.60;;;;;;;;;;4951482;28;20444;-45
2022/08/20 13:26:20;;;;;;;0.70;0.70;;;;;;;;;;4956354;28;20232;-45
2022/08/20 13:28:46;;;;;;;0.97;0.90;;;;;;;;;;4953797;28;20456;-45
2022/08/20 13:31:12;;;;;;;0.97;0.70;;;;;;;;;;4948942;28;20180;-45
2022/08/20 13:33:38;;;;;;;3.03;1.00;;;;;;;;;;4954364;28;20327;-46
2022/08/20 13:36:05;;;;;;;2.10;0.77;;;;;;;;;;4955467;28;20728;-45
2022/08/20 13:38:31;;;;;;;2.10;0.80;;;;;;;;;;4953498;28;20203;-45
2022/08/20 13:40:57;;;;;;;0.67;0.60;;;;;;;;;;4957268;28;20712;-45
2022/08/20 13:43:23;;;;;;;0.70;0.70;;;;;;;;;;4953340;28;20816;-45
2022/08/20 13:45:49;;;;;;;1.53;0.60;;;;;;;;;;4951877;28;20263;-45
2022/08/20 13:48:15;;;;;;;0.60;0.53;;;;;;;;;;4954654;28;20188;-45
2022/08/20 13:50:42;;;;;;;0.50;0.50;;;;;;;;;;4952774;28;20181;-45
2022/08/20 13:53:08;;;;;;;0.80;0.80;;;;;;;;;;4952787;28;20900;-45
2022/08/20 13:55:34;;;;;;;0.70;0.70;;;;;;;;;;4956645;28;20193;-45
2022/08/20 13:58:04;;;;;;;1.33;0.80;;;;;;;;;;4950917;28;20705;-45
2022/08/20 14:00:31;;;;;;;1.53;0.80;;;;;;;;;;4944393;28;20621;-46
2022/08/20 14:02:57;;;;;;;1.00;0.60;;;;;;;;;;4952913;28;20638;-45
2022/08/20 14:05:23;;;;;;;0.57;0.57;;;;;;;;;;4951089;28;20200;-45
2022/08/20 14:07:50;;;;;;;1.27;0.77;;;;;;;;;;4950449;28;20186;-46
2022/08/20 14:10:17;;;;;;;1.50;0.73;;;;;;;;;;4949186;28;20173;-45
2022/08/20 14:12:43;;;;;;;0.60;0.50;;;;;;;;;;4955356;28;20426;-45
2022/08/20 14:15:10;;;;;;;1.43;0.50;;;;;;;;;;4956168;28;20186;-45
2022/08/20 14:17:38;;;;;;;1.03;0.60;;;;;;;;;;4949635;28;20184;-45
2022/08/20 14:20:12;;;;;;;0.63;0.60;;;;;;;;;;4953501;28;20190;-46
2022/08/20 14:22:39;;;;;;;0.90;0.60;;;;;;;;;;4954498;28;20549;-45
2022/08/20 14:25:06;;;;;;;0.57;0.57;;;;;;;;;;4954481;28;20774;-45
2022/08/20 14:27:33;;;;;;;1.27;0.60;;;;;;;;;;4949064;28;20611;-45
2022/08/20 14:29:59;;;;;;;0.80;0.53;;;;;;;;;;4952274;28;20645;-45
2022/08/20 14:32:26;;;;;;;0.97;0.70;;;;;;;;;;4951305;28;20661;-45
2022/08/20 14:34:52;;;;;;;2.00;0.63;;;;;;;;;;4952234;28;20691;-45
2022/08/20 14:37:23;;;;;;;0.60;0.60;;;;;;;;;;4955043;28;20182;-45
2022/08/20 14:39:50;;;;;;;2.87;0.70;;;;;;;;;;4956124;28;20625;-45
2022/08/20 14:42:17;;;;;;;0.77;0.60;;;;;;;;;;4949573;28;20228;-45
2022/08/20 14:44:43;;;;;;;0.60;0.60;;;;;;;;;;4950833;28;20212;-45
2022/08/20 14:47:10;;;;;;;0.53;0.53;;;;;;;;;;4955575;28;20182;-45